createdAt,value
2023-12-23T00:00:03.718Z,1506.7720
2023-12-23T00:00:14.792Z,1513.6050
2023-12-23T00:00:25.878Z,1494.9611
2023-12-23T00:00:36.984Z,1498.3160
2023-12-23T00:00:48.032Z,1496.6370
2023-12-23T00:00:59.113Z,1513.6050
2023-12-23T00:01:10.311Z,1503.3781
2023-12-23T00:01:21.475Z,1506.7720
2023-12-23T00:01:32.550Z,1508.4750
2023-12-23T00:01:43.599Z,1510.1810
2023-12-23T00:01:54.821Z,1513.6050
2023-12-23T00:02:06.256Z,1494.9611
2023-12-23T00:02:17.392Z,1506.7720
2023-12-23T00:02:28.518Z,1496.6370
2023-12-23T00:02:39.553Z,1508.4750
2023-12-23T00:02:50.618Z,1494.9611
2023-12-23T00:03:01.699Z,1513.6050
2023-12-23T00:03:12.764Z,1510.1810
2023-12-23T00:03:23.888Z,1505.0730
2023-12-23T00:03:34.971Z,1513.6050
2023-12-23T00:03:46.173Z,1515.3240
2023-12-23T00:03:57.319Z,1511.8910
2023-12-23T00:04:08.382Z,1499.1580
2023-12-23T00:04:19.443Z,1508.4750
2023-12-23T00:04:30.502Z,1515.3240
2023-12-23T00:04:41.599Z,1498.3160
2023-12-23T00:04:52.802Z,1496.6370
2023-12-23T00:05:04.022Z,1505.0730
2023-12-23T00:05:15.130Z,1505.0730
2023-12-23T00:05:26.528Z,1511.8910
2023-12-23T00:05:37.708Z,1511.8910
2023-12-23T00:05:48.832Z,1511.8910
2023-12-23T00:06:00.014Z,1513.6050
2023-12-23T00:06:11.305Z,1513.6050
2023-12-23T00:06:22.480Z,1496.6370
2023-12-23T00:06:33.539Z,1498.3160
2023-12-23T00:06:44.592Z,1496.6370
2023-12-23T00:06:55.674Z,1494.1240
2023-12-23T00:07:06.725Z,1498.3160
2023-12-23T00:07:17.792Z,1515.3240
2023-12-23T00:07:28.864Z,1495.7980
2023-12-23T00:07:39.968Z,1501.6870
2023-12-23T00:07:51.308Z,1498.3160
2023-12-23T00:08:02.730Z,1505.0730
2023-12-23T00:08:13.898Z,1513.6050
2023-12-23T00:08:26.664Z,1497.4760
2023-12-23T00:08:39.508Z,1498.3160
2023-12-23T00:08:50.534Z,1508.4750
2023-12-23T00:09:01.594Z,1510.1810
2023-12-23T00:09:12.664Z,1501.6870
2023-12-23T00:09:23.707Z,1513.6050
2023-12-23T00:09:34.745Z,1497.4760
2023-12-23T00:09:45.853Z,1494.1240
2023-12-23T00:09:56.922Z,1513.6050
2023-12-23T00:10:08.023Z,1504.2250
2023-12-23T00:10:19.141Z,1506.7720
2023-12-23T00:10:30.187Z,1510.1810
2023-12-23T00:10:41.349Z,1496.6370
2023-12-23T00:10:52.436Z,1500.0000
2023-12-23T00:11:03.546Z,1506.7720
2023-12-23T00:11:14.641Z,1515.3240
2023-12-23T00:11:25.795Z,1500.0000
2023-12-23T00:11:36.882Z,1494.1240
2023-12-23T00:11:47.979Z,1497.4760
2023-12-23T00:11:59.063Z,1506.7720
2023-12-23T00:12:10.295Z,1503.3781
2023-12-23T00:12:21.592Z,1503.3781
2023-12-23T00:12:32.837Z,1501.6870
2023-12-23T00:12:44.023Z,1508.4750
2023-12-23T00:12:55.075Z,1507.6230
2023-12-23T00:13:06.118Z,1496.6370
2023-12-23T00:13:17.181Z,1500.0000
2023-12-23T00:13:28.245Z,1500.8430
2023-12-23T00:13:39.305Z,1499.1580
2023-12-23T00:13:50.395Z,1505.0730
2023-12-23T00:14:01.515Z,1503.3781
2023-12-23T00:14:12.688Z,1504.2250
2023-12-23T00:14:23.757Z,1497.4760
2023-12-23T00:14:34.820Z,1499.1580
2023-12-23T00:14:45.916Z,1506.7720
2023-12-23T00:14:56.977Z,1506.7720
2023-12-23T00:15:08.034Z,1501.6870
2023-12-23T00:15:19.104Z,1503.3781
2023-12-23T00:15:30.174Z,1501.6870
2023-12-23T00:15:41.219Z,1503.3781
2023-12-23T00:15:52.281Z,1498.3160
2023-12-23T00:16:03.333Z,1496.6370
2023-12-23T00:16:14.414Z,1500.8430
2023-12-23T00:16:25.460Z,1496.6370
2023-12-23T00:16:36.535Z,1505.0730
2023-12-23T00:16:47.602Z,1505.0730
2023-12-23T00:16:58.797Z,1504.2250
2023-12-23T00:17:09.978Z,1501.6870
2023-12-23T00:17:21.422Z,1503.3781
2023-12-23T00:17:32.860Z,1523.9730
2023-12-23T00:17:48.418Z,1501.6870
2023-12-23T00:18:01.666Z,1495.7980
2023-12-23T00:18:13.360Z,1515.3240
2023-12-23T00:18:24.752Z,1504.2250
2023-12-23T00:18:36.432Z,1492.4540
2023-12-23T00:18:47.947Z,1505.0730
2023-12-23T00:18:59.268Z,1506.7720
2023-12-23T00:19:10.815Z,1502.5320
2023-12-23T00:19:22.239Z,1498.3160
2023-12-23T00:19:33.718Z,1498.3160
2023-12-23T00:19:45.228Z,1500.8430
2023-12-23T00:19:56.611Z,1498.3160
2023-12-23T00:20:07.974Z,1503.3781
2023-12-23T00:20:19.417Z,1513.6050
2023-12-23T00:20:30.884Z,1513.6050
2023-12-23T00:20:42.079Z,1511.8910
2023-12-23T00:20:53.358Z,1497.4760
2023-12-23T00:21:04.596Z,1503.3781
2023-12-23T00:21:26.762Z,1500.0000
2023-12-23T00:21:37.829Z,1501.6870
2023-12-23T00:21:48.958Z,1498.3160
2023-12-23T00:22:00.020Z,1505.0730
2023-12-23T00:22:11.088Z,1501.6870
2023-12-23T00:22:22.238Z,1505.0730
2023-12-23T00:22:33.307Z,1513.6050
2023-12-23T00:22:44.363Z,1513.6050
2023-12-23T00:22:55.481Z,1497.4760
2023-12-23T00:23:06.557Z,1496.6370
2023-12-23T00:23:17.716Z,1502.5320
2023-12-23T00:23:28.852Z,1501.6870
2023-12-23T00:23:39.930Z,1501.6870
2023-12-23T00:23:51.001Z,1503.3781
2023-12-23T00:24:02.062Z,1499.1580
2023-12-23T00:24:13.123Z,1502.5320
2023-12-23T00:24:24.198Z,1502.5320
2023-12-23T00:24:35.243Z,1503.3781
2023-12-23T00:24:46.315Z,1503.3781
2023-12-23T00:24:57.401Z,1503.3781
2023-12-23T00:25:08.434Z,1528.3340
2023-12-23T00:25:19.510Z,1509.3270
2023-12-23T00:25:30.553Z,1505.0730
2023-12-23T00:25:41.715Z,1510.1810
2023-12-23T00:25:52.916Z,1504.2250
2023-12-23T00:26:04.060Z,1513.6050
2023-12-23T00:26:15.258Z,1501.6870
2023-12-23T00:26:26.295Z,1506.7720
2023-12-23T00:26:37.361Z,1505.9220
2023-12-23T00:26:48.422Z,1513.6050
2023-12-23T00:26:59.473Z,1498.3160
2023-12-23T00:27:10.503Z,1509.3270
2023-12-23T00:27:21.581Z,1517.0450
2023-12-23T00:27:32.693Z,1505.9220
2023-12-23T00:27:43.752Z,1510.1810
2023-12-23T00:27:54.815Z,1508.4750
2023-12-23T00:28:05.861Z,1506.7720
2023-12-23T00:28:16.915Z,1509.3270
2023-12-23T00:28:27.958Z,1506.7720
2023-12-23T00:28:39.022Z,1505.9220
2023-12-23T00:28:50.168Z,1511.8910
2023-12-23T00:29:01.233Z,1512.7480
2023-12-23T00:29:12.355Z,1511.8910
2023-12-23T00:29:23.512Z,1512.7480
2023-12-23T00:29:34.554Z,1513.6050
2023-12-23T00:29:45.673Z,1517.0450
2023-12-23T00:29:56.741Z,1515.3230
2023-12-23T00:30:07.834Z,1505.9220
2023-12-23T00:30:18.966Z,1511.0360
2023-12-23T00:30:30.126Z,1511.8910
2023-12-23T00:30:41.210Z,1510.1810
2023-12-23T00:30:52.285Z,1513.6050
2023-12-23T00:31:03.360Z,1511.0360
2023-12-23T00:31:14.418Z,1505.0730
2023-12-23T00:31:25.481Z,1510.1810
2023-12-23T00:31:36.577Z,1514.4640
2023-12-23T00:31:47.675Z,1511.0360
2023-12-23T00:31:58.802Z,1510.1810
2023-12-23T00:32:09.896Z,1510.1810
2023-12-23T00:32:20.961Z,1495.7980
2023-12-23T00:32:32.049Z,1509.3270
2023-12-23T00:32:43.156Z,1513.6050
2023-12-23T00:32:54.226Z,1513.6050
2023-12-23T00:33:05.400Z,1514.4640
2023-12-23T00:33:16.615Z,1494.9611
2023-12-23T00:33:27.798Z,1515.3230
2023-12-23T00:33:38.958Z,1530.9630
2023-12-23T00:33:50.106Z,1517.0450
2023-12-23T00:34:01.246Z,1515.3230
2023-12-23T00:34:12.310Z,1511.0360
2023-12-23T00:34:23.392Z,1512.7480
2023-12-23T00:34:34.486Z,1517.0450
2023-12-23T00:34:45.548Z,1508.4750
2023-12-23T00:34:56.690Z,1512.7480
2023-12-23T00:35:07.925Z,1511.0360
2023-12-23T00:35:19.140Z,1511.8910
2023-12-23T00:35:30.291Z,1513.6050
2023-12-23T00:35:41.340Z,1509.3270
2023-12-23T00:35:52.423Z,1533.6010
2023-12-23T00:36:03.494Z,1509.3270
2023-12-23T00:36:14.568Z,1513.6050
2023-12-23T00:36:25.635Z,1519.6360
2023-12-23T00:36:36.706Z,1514.4640
2023-12-23T00:36:47.753Z,1509.3270
2023-12-23T00:36:58.844Z,1517.0450
2023-12-23T00:37:09.912Z,1513.6050
2023-12-23T00:37:21.014Z,1519.6360
2023-12-23T00:37:32.105Z,1511.8910
2023-12-23T00:37:43.172Z,1517.0450
2023-12-23T00:37:54.289Z,1518.7710
2023-12-23T00:38:05.433Z,1517.0450
2023-12-23T00:38:16.537Z,1513.6050
2023-12-23T00:38:27.645Z,1515.3230
2023-12-23T00:38:38.727Z,1523.9730
2023-12-23T00:38:49.763Z,1513.6050
2023-12-23T00:39:00.834Z,1507.6230
2023-12-23T00:39:11.899Z,1517.0450
2023-12-23T00:39:22.961Z,1511.8910
2023-12-23T00:39:34.108Z,1517.0450
2023-12-23T00:39:45.167Z,1521.3680
2023-12-23T00:39:56.233Z,1507.6230
2023-12-23T00:40:07.330Z,1520.5010
2023-12-23T00:40:18.394Z,1515.3230
2023-12-23T00:40:29.460Z,1520.5010
2023-12-23T00:40:40.566Z,1511.0360
2023-12-23T00:40:51.664Z,1518.7710
2023-12-23T00:41:02.725Z,1531.8420
2023-12-23T00:41:13.959Z,1517.9080
2023-12-23T00:41:25.033Z,1508.4750
2023-12-23T00:41:36.089Z,1520.5010
2023-12-23T00:41:47.189Z,1503.3781
2023-12-23T00:41:58.232Z,1518.7710
2023-12-23T00:42:09.310Z,1517.9080
2023-12-23T00:42:20.376Z,1517.0450
2023-12-23T00:42:31.449Z,1509.3270
2023-12-23T00:42:42.485Z,1513.6050
2023-12-23T00:42:53.534Z,1513.6050
2023-12-23T00:43:04.618Z,1514.4640
2023-12-23T00:43:15.684Z,1520.5010
2023-12-23T00:43:26.765Z,1518.7710
2023-12-23T00:43:37.860Z,1520.5010
2023-12-23T00:43:48.967Z,1515.3230
2023-12-23T00:44:00.122Z,1517.0450
2023-12-23T00:44:11.273Z,1511.8910
2023-12-23T00:44:22.405Z,1516.1840
2023-12-23T00:44:33.469Z,1518.7710
2023-12-23T00:44:44.531Z,1503.3781
2023-12-23T00:44:55.609Z,1518.7710
2023-12-23T00:45:06.667Z,1519.6360
2023-12-23T00:45:17.764Z,1503.3781
2023-12-23T00:45:28.812Z,1512.7480
2023-12-23T00:45:39.879Z,1515.3230
2023-12-23T00:45:50.950Z,1518.7710
2023-12-23T00:46:02.027Z,1523.9730
2023-12-23T00:46:13.062Z,1518.7710
2023-12-23T00:46:24.137Z,1518.7710
2023-12-23T00:46:35.324Z,1512.7480
2023-12-23T00:46:46.486Z,1519.6360
2023-12-23T00:46:57.588Z,1514.4640
2023-12-23T00:47:08.728Z,1511.8910
2023-12-23T00:47:19.817Z,1515.3230
2023-12-23T00:47:35.110Z,1517.0450
2023-12-23T00:47:47.877Z,1516.1840
2023-12-23T00:47:59.121Z,1509.3270
2023-12-23T00:48:10.303Z,1511.8910
2023-12-23T00:48:21.577Z,1505.9220
2023-12-23T00:48:32.775Z,1511.0360
2023-12-23T00:48:43.978Z,1513.6050
2023-12-23T00:48:55.130Z,1500.8430
2023-12-23T00:49:06.255Z,1508.4750
2023-12-23T00:49:17.350Z,1513.6050
2023-12-23T00:49:28.509Z,1506.7720
2023-12-23T00:49:39.650Z,1522.2350
2023-12-23T00:49:50.763Z,1516.1840
2023-12-23T00:50:01.863Z,1515.3230
2023-12-23T00:50:12.932Z,1511.8910
2023-12-23T00:50:24.096Z,1508.4750
2023-12-23T00:50:35.175Z,1517.9080
2023-12-23T00:50:46.240Z,1510.1810
2023-12-23T00:50:57.326Z,1514.4640
2023-12-23T00:51:08.387Z,1513.6050
2023-12-23T00:51:19.433Z,1511.0360
2023-12-23T00:51:30.509Z,1516.1840
2023-12-23T00:51:41.602Z,1523.9730
2023-12-23T00:51:52.671Z,1502.5320
2023-12-23T00:52:03.742Z,1520.5010
2023-12-23T00:52:14.826Z,1514.4640
2023-12-23T00:52:25.886Z,1518.7710
2023-12-23T00:52:36.997Z,1517.0450
2023-12-23T00:52:48.078Z,1523.9730
2023-12-23T00:52:59.142Z,1508.4750
2023-12-23T00:53:10.236Z,1500.8430
2023-12-23T00:53:21.333Z,1523.1030
2023-12-23T00:53:32.406Z,1521.3680
2023-12-23T00:53:45.873Z,1509.3270
2023-12-23T00:53:58.321Z,1518.7710
2023-12-23T00:54:09.372Z,1504.2250
2023-12-23T00:54:20.428Z,1510.1810
2023-12-23T00:54:31.471Z,1508.4750
2023-12-23T00:54:42.524Z,1514.4640
2023-12-23T00:54:53.567Z,1510.1810
2023-12-23T00:55:04.622Z,1526.5870
2023-12-23T00:55:15.717Z,1517.0450
2023-12-23T00:55:26.771Z,1504.2250
2023-12-23T00:55:37.857Z,1519.6360
2023-12-23T00:55:48.904Z,1523.9730
2023-12-23T00:55:59.949Z,1515.3230
2023-12-23T00:56:11.188Z,1517.0450
2023-12-23T00:56:22.274Z,1517.0450
2023-12-23T00:56:33.371Z,1523.9730
2023-12-23T00:56:44.478Z,1515.3230
2023-12-23T00:56:55.540Z,1513.6050
2023-12-23T00:57:06.649Z,1511.8910
2023-12-23T00:57:17.708Z,1505.9220
2023-12-23T00:57:28.774Z,1517.0450
2023-12-23T00:57:39.819Z,1520.5010
2023-12-23T00:57:51.234Z,1524.8430
2023-12-23T00:58:02.700Z,1516.1840
2023-12-23T00:58:13.772Z,1513.6050
2023-12-23T00:58:24.838Z,1517.9080
2023-12-23T00:58:35.925Z,1514.4640
2023-12-23T00:58:47.021Z,1525.7140
2023-12-23T00:58:58.130Z,1514.4640
2023-12-23T00:59:09.272Z,1522.2350
2023-12-23T00:59:20.404Z,1529.2100
2023-12-23T00:59:31.533Z,1529.2100
2023-12-23T00:59:42.572Z,1517.0450
2023-12-23T00:59:53.641Z,1523.1030
2023-12-23T01:00:04.720Z,1525.7140
2023-12-23T01:00:15.781Z,1519.6360
2023-12-23T01:00:26.924Z,1518.7710
2023-12-23T01:00:38.038Z,1521.3680
2023-12-23T01:00:49.112Z,1527.4600
2023-12-23T01:01:00.261Z,1512.7480
2023-12-23T01:01:11.397Z,1504.2250
2023-12-23T01:01:22.575Z,1515.3230
2023-12-23T01:01:33.676Z,1505.9220
2023-12-23T01:01:44.812Z,1520.5010
2023-12-23T01:01:56.002Z,1518.7710
2023-12-23T01:02:07.081Z,1519.6360
2023-12-23T01:02:18.215Z,1524.8430
2023-12-23T01:02:29.281Z,1515.3230
2023-12-23T01:02:40.354Z,1515.3230
2023-12-23T01:02:51.477Z,1515.3230
2023-12-23T01:03:02.499Z,1522.2350
2023-12-23T01:03:13.659Z,1517.9080
2023-12-23T01:03:24.785Z,1518.7710
2023-12-23T01:03:35.857Z,1517.0450
2023-12-23T01:03:46.964Z,1523.9730
2023-12-23T01:03:58.147Z,1520.5010
2023-12-23T01:04:09.402Z,1520.5010
2023-12-23T01:04:20.451Z,1520.5010
2023-12-23T01:04:31.528Z,1505.0730
2023-12-23T01:04:42.588Z,1520.5010
2023-12-23T01:04:53.682Z,1508.4750
2023-12-23T01:05:04.772Z,1517.0450
2023-12-23T01:05:15.944Z,1506.7720
2023-12-23T01:05:27.012Z,1523.9730
2023-12-23T01:05:38.086Z,1520.5010
2023-12-23T01:05:49.140Z,1520.5010
2023-12-23T01:06:00.254Z,1523.1030
2023-12-23T01:06:11.346Z,1523.9730
2023-12-23T01:06:22.451Z,1525.7140
2023-12-23T01:06:33.526Z,1522.2350
2023-12-23T01:06:44.652Z,1517.9080
2023-12-23T01:06:55.756Z,1520.5010
2023-12-23T01:07:06.825Z,1515.3230
2023-12-23T01:07:17.884Z,1519.6360
2023-12-23T01:07:28.941Z,1516.1840
2023-12-23T01:07:40.113Z,1518.7710
2023-12-23T01:07:51.413Z,1522.2350
2023-12-23T01:08:02.724Z,1518.7710
2023-12-23T01:08:13.817Z,1522.2350
2023-12-23T01:08:24.992Z,1520.5010
2023-12-23T01:08:36.078Z,1519.6360
2023-12-23T01:08:47.140Z,1523.1030
2023-12-23T01:08:58.261Z,1522.2350
2023-12-23T01:09:09.306Z,1511.8910
2023-12-23T01:09:20.369Z,1519.6360
2023-12-23T01:09:31.440Z,1523.9730
2023-12-23T01:09:42.501Z,1516.1840
2023-12-23T01:09:53.585Z,1521.3680
2023-12-23T01:10:04.649Z,1523.9730
2023-12-23T01:10:15.680Z,1523.9730
2023-12-23T01:10:26.758Z,1524.8430
2023-12-23T01:10:37.853Z,1517.0450
2023-12-23T01:10:49.027Z,1521.3680
2023-12-23T01:11:00.152Z,1512.7480
2023-12-23T01:11:11.215Z,1522.2350
2023-12-23T01:11:22.362Z,1520.5010
2023-12-23T01:11:33.440Z,1530.9630
2023-12-23T01:11:44.471Z,1524.8430
2023-12-23T01:11:55.546Z,1518.7710
2023-12-23T01:12:06.638Z,1519.6360
2023-12-23T01:12:17.727Z,1521.3680
2023-12-23T01:12:28.780Z,1522.2350
2023-12-23T01:12:39.850Z,1529.2100
2023-12-23T01:12:50.933Z,1523.1030
2023-12-23T01:13:02.002Z,1530.9630
2023-12-23T01:13:13.060Z,1527.4600
2023-12-23T01:13:24.134Z,1520.5010
2023-12-23T01:13:35.292Z,1529.2100
2023-12-23T01:13:47.019Z,1522.2350
2023-12-23T01:13:58.188Z,1522.2350
2023-12-23T01:14:09.365Z,1519.6360
2023-12-23T01:14:20.542Z,1529.2100
2023-12-23T01:14:31.642Z,1530.9630
2023-12-23T01:14:42.702Z,1522.2350
2023-12-23T01:14:53.765Z,1530.9630
2023-12-23T01:15:05.407Z,1528.3340
2023-12-23T01:15:16.472Z,1523.9730
2023-12-23T01:15:27.558Z,1526.5870
2023-12-23T01:15:38.612Z,1522.2350
2023-12-23T01:15:49.686Z,1513.6050
2023-12-23T01:16:00.748Z,1523.9730
2023-12-23T01:16:11.811Z,1518.7710
2023-12-23T01:16:22.881Z,1525.7140
2023-12-23T01:16:34.041Z,1525.7140
2023-12-23T01:16:45.187Z,1532.7209
2023-12-23T01:16:56.272Z,1529.2100
2023-12-23T01:17:07.397Z,1530.0861
2023-12-23T01:17:18.501Z,1530.9630
2023-12-23T01:17:29.740Z,1528.3340
2023-12-23T01:17:40.880Z,1523.9730
2023-12-23T01:17:52.164Z,1530.9630
2023-12-23T01:18:03.722Z,1517.0450
2023-12-23T01:18:14.878Z,1527.4600
2023-12-23T01:18:26.049Z,1522.2350
2023-12-23T01:18:37.341Z,1520.5010
2023-12-23T01:18:48.584Z,1532.7209
2023-12-23T01:18:59.677Z,1523.9730
2023-12-23T01:19:10.759Z,1517.0450
2023-12-23T01:19:21.856Z,1513.6050
2023-12-23T01:19:32.915Z,1528.3340
2023-12-23T01:19:43.975Z,1528.3340
2023-12-23T01:19:55.076Z,1516.1840
2023-12-23T01:20:06.177Z,1530.0861
2023-12-23T01:20:17.361Z,1528.3340
2023-12-23T01:20:28.523Z,1525.7140
2023-12-23T01:20:39.613Z,1545.1390
2023-12-23T01:20:50.662Z,1529.2100
2023-12-23T01:21:01.736Z,1519.6360
2023-12-23T01:21:12.806Z,1525.7140
2023-12-23T01:21:23.868Z,1521.3680
2023-12-23T01:21:34.942Z,1523.9730
2023-12-23T01:21:46.026Z,1523.1030
2023-12-23T01:21:57.086Z,1530.9630
2023-12-23T01:22:08.161Z,1516.1840
2023-12-23T01:22:19.208Z,1523.9730
2023-12-23T01:22:30.263Z,1527.4600
2023-12-23T01:22:41.354Z,1525.7140
2023-12-23T01:22:52.467Z,1513.6050
2023-12-23T01:23:03.550Z,1529.2100
2023-12-23T01:23:14.684Z,1531.8420
2023-12-23T01:23:25.771Z,1527.4600
2023-12-23T01:23:36.835Z,1516.1840
2023-12-23T01:23:47.939Z,1516.1840
2023-12-23T01:23:59.015Z,1531.8420
2023-12-23T01:24:10.085Z,1536.2490
2023-12-23T01:24:21.183Z,1530.9630
2023-12-23T01:24:32.225Z,1530.0861
2023-12-23T01:24:43.309Z,1534.4830
2023-12-23T01:24:54.364Z,1514.4640
2023-12-23T01:25:05.425Z,1532.7209
2023-12-23T01:25:16.499Z,1518.7710
2023-12-23T01:25:27.547Z,1525.7140
2023-12-23T01:25:38.607Z,1530.0861
2023-12-23T01:25:49.642Z,1530.0861
2023-12-23T01:26:00.699Z,1523.9730
2023-12-23T01:26:11.794Z,1521.3680
2023-12-23T01:26:22.967Z,1527.4600
2023-12-23T01:26:34.022Z,1523.1030
2023-12-23T01:26:45.095Z,1530.9630
2023-12-23T01:26:56.140Z,1532.7209
2023-12-23T01:27:07.231Z,1528.3340
2023-12-23T01:27:18.302Z,1529.2100
2023-12-23T01:27:29.331Z,1518.7710
2023-12-23T01:27:40.403Z,1517.9080
2023-12-23T01:27:51.764Z,1530.9630
2023-12-23T01:28:03.022Z,1533.6010
2023-12-23T01:28:14.116Z,1529.2100
2023-12-23T01:28:25.169Z,1539.7920
2023-12-23T01:28:36.257Z,1532.7209
2023-12-23T01:28:47.319Z,1536.2490
2023-12-23T01:28:58.433Z,1532.7209
2023-12-23T01:29:09.504Z,1528.3340
2023-12-23T01:29:20.552Z,1529.2100
2023-12-23T01:29:31.618Z,1520.5010
2023-12-23T01:29:42.721Z,1532.7209
2023-12-23T01:29:53.773Z,1534.4830
2023-12-23T01:30:04.895Z,1531.8420
2023-12-23T01:30:16.039Z,1519.6360
2023-12-23T01:30:27.097Z,1531.8420
2023-12-23T01:30:38.221Z,1514.4640
2023-12-23T01:30:49.313Z,1529.2100
2023-12-23T01:31:00.390Z,1532.7209
2023-12-23T01:31:11.404Z,1523.1030
2023-12-23T01:31:22.476Z,1531.8420
2023-12-23T01:31:33.543Z,1527.4600
2023-12-23T01:31:44.691Z,1534.4830
2023-12-23T01:31:55.756Z,1531.8420
2023-12-23T01:32:06.838Z,1531.8420
2023-12-23T01:32:17.965Z,1530.0861
2023-12-23T01:32:29.123Z,1534.4830
2023-12-23T01:32:40.247Z,1525.7140
2023-12-23T01:32:51.333Z,1527.4600
2023-12-23T01:33:02.594Z,1525.7140
2023-12-23T01:33:13.822Z,1534.4830
2023-12-23T01:33:25.020Z,1525.7140
2023-12-23T01:33:36.266Z,1539.7920
2023-12-23T01:33:47.656Z,1523.9730
2023-12-23T01:33:58.873Z,1530.0861
2023-12-23T01:34:09.954Z,1530.9630
2023-12-23T01:34:21.034Z,1520.5010
2023-12-23T01:34:32.090Z,1522.2350
2023-12-23T01:34:43.189Z,1523.1030
2023-12-23T01:34:54.254Z,1538.0179
2023-12-23T01:35:05.327Z,1529.2100
2023-12-23T01:35:16.534Z,1516.1840
2023-12-23T01:35:27.650Z,1530.9630
2023-12-23T01:35:38.728Z,1517.0450
2023-12-23T01:35:49.776Z,1518.7710
2023-12-23T01:36:00.823Z,1538.0179
2023-12-23T01:36:11.894Z,1531.8420
2023-12-23T01:36:23.097Z,1537.1331
2023-12-23T01:36:34.181Z,1537.1331
2023-12-23T01:36:45.234Z,1538.0179
2023-12-23T01:36:56.298Z,1526.5870
2023-12-23T01:37:07.364Z,1532.7209
2023-12-23T01:37:18.419Z,1536.2490
2023-12-23T01:37:29.493Z,1518.7710
2023-12-23T01:37:40.601Z,1529.2100
2023-12-23T01:37:52.028Z,1533.6010
2023-12-23T01:38:06.554Z,1530.0861
2023-12-23T01:38:20.328Z,1527.4600
2023-12-23T01:38:31.390Z,1549.6230
2023-12-23T01:38:42.474Z,1529.2100
2023-12-23T01:38:53.540Z,1515.3230
2023-12-23T01:39:04.617Z,1534.4830
2023-12-23T01:39:15.668Z,1524.8430
2023-12-23T01:39:26.740Z,1528.3340
2023-12-23T01:39:37.779Z,1528.3340
2023-12-23T01:39:48.859Z,1529.2100
2023-12-23T01:39:59.919Z,1515.3230
2023-12-23T01:40:10.977Z,1535.3650
2023-12-23T01:40:22.032Z,1520.5010
2023-12-23T01:40:33.119Z,1529.2100
2023-12-23T01:40:44.199Z,1529.2100
2023-12-23T01:40:55.261Z,1513.6050
2023-12-23T01:41:06.367Z,1528.3340
2023-12-23T01:41:17.533Z,1525.7140
2023-12-23T01:41:28.658Z,1532.7209
2023-12-23T01:41:39.686Z,1525.7140
2023-12-23T01:41:50.740Z,1533.6010
2023-12-23T01:42:01.811Z,1522.2350
2023-12-23T01:42:12.856Z,1511.8910
2023-12-23T01:42:23.926Z,1531.8420
2023-12-23T01:42:34.973Z,1527.4600
2023-12-23T01:42:46.071Z,1526.5870
2023-12-23T01:42:57.117Z,1518.7710
2023-12-23T01:43:08.178Z,1530.9630
2023-12-23T01:43:19.243Z,1529.2100
2023-12-23T01:43:30.306Z,1529.2100
2023-12-23T01:43:41.383Z,1525.7140
2023-12-23T01:43:52.477Z,1525.7140
2023-12-23T01:44:03.543Z,1523.9730
2023-12-23T01:44:14.734Z,1530.0861
2023-12-23T01:44:25.794Z,1523.1030
2023-12-23T01:44:36.856Z,1532.7209
2023-12-23T01:44:47.960Z,1527.4600
2023-12-23T01:44:58.979Z,1521.3680
2023-12-23T01:45:10.044Z,1523.9730
2023-12-23T01:45:21.097Z,1531.8420
2023-12-23T01:45:34.984Z,1517.9080
2023-12-23T01:45:47.671Z,1511.8910
2023-12-23T01:45:58.736Z,1520.5010
2023-12-23T01:46:09.800Z,1529.2100
2023-12-23T01:46:20.873Z,1529.2100
2023-12-23T01:46:31.918Z,1525.7140
2023-12-23T01:46:42.986Z,1525.7140
2023-12-23T01:46:54.054Z,1527.4600
2023-12-23T01:47:05.168Z,1520.5010
2023-12-23T01:47:16.246Z,1526.5870
2023-12-23T01:47:27.411Z,1525.7140
2023-12-23T01:47:38.515Z,1534.4830
2023-12-23T01:47:50.010Z,1527.4600
2023-12-23T01:48:01.265Z,1527.4600
2023-12-23T01:48:12.485Z,1522.2350
2023-12-23T01:48:23.999Z,1531.8420
2023-12-23T01:48:35.374Z,1519.6360
2023-12-23T01:48:46.484Z,1517.0450
2023-12-23T01:48:57.613Z,1518.7710
2023-12-23T01:49:08.717Z,1521.3680
2023-12-23T01:49:19.826Z,1519.6360
2023-12-23T01:49:30.875Z,1515.3230
2023-12-23T01:49:41.958Z,1509.3270
2023-12-23T01:49:53.034Z,1527.4600
2023-12-23T01:50:04.306Z,1518.7710
2023-12-23T01:50:15.480Z,1512.7480
2023-12-23T01:50:26.648Z,1545.1390
2023-12-23T01:50:37.711Z,1527.4600
2023-12-23T01:50:48.757Z,1522.2350
2023-12-23T01:50:59.830Z,1527.4600
2023-12-23T01:51:10.864Z,1525.7140
2023-12-23T01:51:21.935Z,1523.9730
2023-12-23T01:51:33.024Z,1522.2350
2023-12-23T01:51:44.071Z,1519.6360
2023-12-23T01:51:55.136Z,1526.5870
2023-12-23T01:52:06.178Z,1529.2100
2023-12-23T01:52:17.219Z,1522.2350
2023-12-23T01:52:28.247Z,1523.9730
2023-12-23T01:52:39.430Z,1518.7710
2023-12-23T01:52:50.565Z,1507.6230
2023-12-23T01:53:01.640Z,1523.9730
2023-12-23T01:53:12.754Z,1548.7240
2023-12-23T01:53:23.858Z,1529.2100
2023-12-23T01:53:34.889Z,1529.2100
2023-12-23T01:53:45.930Z,1532.7209
2023-12-23T01:53:56.996Z,1529.2100
2023-12-23T01:54:08.020Z,1523.1030
2023-12-23T01:54:19.047Z,1525.7140
2023-12-23T01:54:30.111Z,1518.7710
2023-12-23T01:54:41.193Z,1521.3680
2023-12-23T01:54:52.252Z,1532.7209
2023-12-23T01:55:03.309Z,1528.3340
2023-12-23T01:55:14.387Z,1521.3680
2023-12-23T01:55:25.448Z,1518.7710
2023-12-23T01:55:36.571Z,1527.4600
2023-12-23T01:55:47.634Z,1525.7140
2023-12-23T01:55:58.769Z,1516.1840
2023-12-23T01:56:09.863Z,1527.4600
2023-12-23T01:56:21.010Z,1524.8430
2023-12-23T01:56:32.111Z,1522.2350
2023-12-23T01:56:43.165Z,1523.1030
2023-12-23T01:56:54.228Z,1520.5010
2023-12-23T01:57:05.293Z,1519.6360
2023-12-23T01:57:16.358Z,1530.9630
2023-12-23T01:57:27.430Z,1525.7140
2023-12-23T01:57:38.484Z,1525.7140
2023-12-23T01:57:49.902Z,1521.3680
2023-12-23T01:58:01.086Z,1521.3680
2023-12-23T01:58:12.147Z,1525.7140
2023-12-23T01:58:23.221Z,1528.3340
2023-12-23T01:58:34.249Z,1527.4600
2023-12-23T01:58:45.343Z,1522.2350
2023-12-23T01:58:56.429Z,1518.7710
2023-12-23T01:59:07.521Z,1517.9080
2023-12-23T01:59:18.605Z,1519.6360
2023-12-23T01:59:29.661Z,1519.6360
2023-12-23T01:59:40.733Z,1530.0861
2023-12-23T01:59:51.796Z,1508.4750
2023-12-23T02:00:02.858Z,1513.6050
2023-12-23T02:00:13.971Z,1523.9730
2023-12-23T02:00:25.042Z,1522.2350
2023-12-23T02:00:36.209Z,1526.5870
2023-12-23T02:00:47.347Z,1523.9730
2023-12-23T02:00:58.522Z,1517.0450
2023-12-23T02:01:09.692Z,1520.5010
2023-12-23T02:01:20.894Z,1518.7710
2023-12-23T02:01:32.085Z,1522.2350
2023-12-23T02:01:43.260Z,1523.1030
2023-12-23T02:01:54.441Z,1517.9080
2023-12-23T02:02:05.662Z,1523.1030
2023-12-23T02:02:16.859Z,1511.0360
2023-12-23T02:02:28.478Z,1522.2350
2023-12-23T02:02:39.999Z,1521.3680
2023-12-23T02:02:52.031Z,1518.7710
2023-12-23T02:03:03.674Z,1530.9630
2023-12-23T02:03:14.778Z,1518.7710
2023-12-23T02:03:25.827Z,1522.2350
2023-12-23T02:03:36.957Z,1516.1840
2023-12-23T02:03:48.074Z,1523.9730
2023-12-23T02:03:59.156Z,1508.4750
2023-12-23T02:04:10.212Z,1517.0450
2023-12-23T02:04:21.292Z,1530.9630
2023-12-23T02:04:32.361Z,1520.5010
2023-12-23T02:04:43.481Z,1517.9080
2023-12-23T02:04:54.566Z,1517.0450
2023-12-23T02:05:05.853Z,1516.1840
2023-12-23T02:05:16.989Z,1519.6360
2023-12-23T02:05:28.120Z,1518.7710
2023-12-23T02:05:39.305Z,1518.7710
2023-12-23T02:05:50.588Z,1516.1840
2023-12-23T02:06:01.746Z,1513.6050
2023-12-23T02:06:12.925Z,1522.2350
2023-12-23T02:06:24.141Z,1539.7920
2023-12-23T02:06:35.210Z,1503.3781
2023-12-23T02:06:46.286Z,1501.6870
2023-12-23T02:06:57.341Z,1519.6360
2023-12-23T02:07:08.418Z,1511.0360
2023-12-23T02:07:19.453Z,1519.6360
2023-12-23T02:07:30.494Z,1517.0450